Anthony, Indiana
Current Conditions -  °F | °C
As of 10:53 PM on Friday 19 Dec 2014 (Local Time) from KMIE Reporting Station
Haze Haze  
Wind Chill: 29°   Ceiling: 2200
Heat Index: 29°   Visibility: 6mi
Dew Point: 25°   Wind: 0mph
Humidity: 85%   Direction: NA
Pressure: 30.26"   Gusts: NA
Location:  40.2763°N, 85.3769°W
Report Text: KMIE 200353Z AUTO 00000KT 6SM BR OVC022 M02/M04 A3026 RMK AO2 SLP253 T10171039 $
Loading
Personal Weather Stations






























Interactive Weather Map New forecast layout! Learn more

10-Day Weather Forecast

Advertisements
Track Severe Weather on mobile